createdAt,value
2023-03-18T00:04:46.673Z,98619.75
2023-03-18T00:10:51.286Z,98622.03
2023-03-18T00:16:53.195Z,98629.19
2023-03-18T00:22:57.488Z,98630.47
2023-03-18T00:29:00.006Z,98632.22
2023-03-18T00:35:04.000Z,98631.09
2023-03-18T00:41:12.177Z,98639.91
2023-03-18T00:47:14.122Z,98635.91
2023-03-18T00:53:17.229Z,98629.72
2023-03-18T00:59:19.322Z,98627.16
2023-03-18T01:05:21.835Z,98631.09
2023-03-18T01:11:24.614Z,98628.75
2023-03-18T01:17:27.340Z,98636.84
2023-03-18T01:23:30.267Z,98645.34
2023-03-18T01:29:32.187Z,98638.44
2023-03-18T01:35:37.758Z,98647.56
2023-03-18T01:41:40.277Z,98653.06
2023-03-18T01:47:44.710Z,98648.19
2023-03-18T01:53:50.644Z,98643.66
2023-03-18T01:59:55.618Z,98639.53
2023-03-18T02:05:57.903Z,98656.25
2023-03-18T02:12:03.779Z,98665.03
2023-03-18T02:18:30.913Z,98672.03
2023-03-18T02:24:58.617Z,98667.19
2023-03-18T02:31:05.173Z,98671.09
2023-03-18T02:37:08.062Z,98680.69
2023-03-18T02:43:32.873Z,98685.41
2023-03-18T02:49:34.953Z,98676.56
2023-03-18T02:55:36.844Z,98678.16
2023-03-18T03:01:40.138Z,98682.88
2023-03-18T03:07:42.440Z,98687.53
2023-03-18T03:13:47.542Z,98690.94
2023-03-18T03:19:49.522Z,98690.44
2023-03-18T03:25:51.430Z,98699.81
2023-03-18T03:31:53.343Z,98698.41
2023-03-18T03:37:55.291Z,98691.66
2023-03-18T03:43:57.196Z,98697.06
2023-03-18T03:49:59.357Z,98696.16
2023-03-18T03:56:01.364Z,98716.16
2023-03-18T04:02:03.706Z,98723.41
2023-03-18T04:08:06.562Z,98709.81
2023-03-18T04:14:09.178Z,98713.13
2023-03-18T04:20:12.179Z,98714.56
2023-03-18T04:26:14.138Z,98712.16
2023-03-18T04:32:16.041Z,98721.81
2023-03-18T04:38:18.026Z,98716.63
2023-03-18T04:44:20.972Z,98702.84
2023-03-18T04:50:24.008Z,98710.28
2023-03-18T04:56:26.271Z,98719.72
2023-03-18T05:02:28.169Z,98722.00
2023-03-18T05:08:30.101Z,98721.59
2023-03-18T05:14:32.067Z,98725.09
2023-03-18T05:20:34.275Z,98722.44
2023-03-18T05:26:36.221Z,98732.50
2023-03-18T05:32:38.867Z,98718.09
2023-03-18T05:38:40.841Z,98717.69
2023-03-18T05:44:42.960Z,98725.50
2023-03-18T05:50:45.130Z,98734.56
2023-03-18T05:56:47.118Z,98742.81
2023-03-18T06:02:49.659Z,98738.06
2023-03-18T06:08:58.518Z,98735.81
2023-03-18T06:15:00.605Z,98741.16
2023-03-18T06:21:02.526Z,98754.97
2023-03-18T06:27:04.557Z,98738.66
2023-03-18T06:33:06.500Z,98741.16
2023-03-18T06:39:08.499Z,98759.66
2023-03-18T06:45:11.959Z,98767.22
2023-03-18T06:51:13.892Z,98781.25
2023-03-18T06:57:16.008Z,98784.72
2023-03-18T07:03:17.962Z,98803.81
2023-03-18T07:09:20.221Z,98806.84
2023-03-18T07:15:23.937Z,98812.72
2023-03-18T07:21:26.497Z,98813.09
2023-03-18T07:27:28.981Z,98822.72
2023-03-18T07:33:30.887Z,98828.34
2023-03-18T07:39:33.648Z,98843.56
2023-03-18T07:45:35.618Z,98836.94
2023-03-18T07:51:37.925Z,98843.94
2023-03-18T07:57:39.946Z,98830.94
2023-03-18T08:03:43.659Z,98845.50
2023-03-18T08:09:45.653Z,98840.75
2023-03-18T08:15:48.680Z,98851.97
2023-03-18T08:21:50.589Z,98858.47
2023-03-18T08:27:53.491Z,98851.75
2023-03-18T08:33:56.935Z,98863.66
2023-03-18T08:39:58.892Z,98872.38
2023-03-18T08:46:00.846Z,98879.41
2023-03-18T08:52:03.858Z,98889.31
2023-03-18T08:58:07.518Z,98875.47
2023-03-18T09:04:09.480Z,98888.06
2023-03-18T09:10:14.325Z,98901.13
2023-03-18T09:16:17.273Z,98903.97
2023-03-18T09:22:19.298Z,98889.72
2023-03-18T09:28:21.442Z,98890.41
2023-03-18T09:34:23.513Z,98884.97
2023-03-18T09:40:29.525Z,98885.88
2023-03-18T09:47:04.421Z,98881.91
2023-03-18T09:53:27.577Z,98881.38
2023-03-18T10:00:09.127Z,98871.50
2023-03-18T10:06:20.503Z,98890.69
2023-03-18T10:12:35.837Z,98888.50
2023-03-18T10:18:42.080Z,98880.28
2023-03-18T10:25:23.789Z,98888.69
2023-03-18T10:31:40.679Z,98896.84
2023-03-18T10:38:05.577Z,98894.09
2023-03-18T10:44:26.756Z,98904.34
2023-03-18T10:50:56.852Z,98899.94
2023-03-18T10:56:59.144Z,98902.84
2023-03-18T11:03:04.233Z,98901.97
2023-03-18T11:09:13.177Z,98902.56
2023-03-18T11:15:20.449Z,98903.94
2023-03-18T11:21:24.598Z,98905.34
2023-03-18T11:27:38.681Z,98908.16
2023-03-18T11:33:40.864Z,98901.28
2023-03-18T11:39:43.365Z,98903.22
2023-03-18T11:45:54.426Z,98898.53
2023-03-18T11:52:22.656Z,98896.06
2023-03-18T11:59:00.613Z,98895.28
2023-03-18T12:05:41.762Z,98897.97
2023-03-18T12:12:27.872Z,98886.31
2023-03-18T12:19:15.824Z,98877.28
2023-03-18T12:25:30.648Z,98880.84
2023-03-18T12:32:05.281Z,98891.84
2023-03-18T12:39:06.519Z,98887.78
2023-03-18T12:45:20.578Z,98888.81
2023-03-18T12:51:29.113Z,98874.88
2023-03-18T12:57:59.514Z,98881.28
2023-03-18T13:04:18.718Z,98878.38
2023-03-18T13:10:24.263Z,98875.88
2023-03-18T13:16:29.329Z,98880.28
2023-03-18T13:23:20.694Z,98873.13
2023-03-18T13:30:22.169Z,98883.41
2023-03-18T13:36:41.689Z,98880.06
2023-03-18T13:42:45.717Z,98884.00
2023-03-18T13:48:48.175Z,98886.75
2023-03-18T13:54:50.263Z,98889.03
2023-03-18T14:00:54.936Z,98889.66
2023-03-18T14:07:14.544Z,98872.03
2023-03-18T14:13:28.210Z,98866.78
2023-03-18T14:19:34.354Z,98864.13
2023-03-18T14:25:44.177Z,98868.19
2023-03-18T14:32:01.037Z,98864.44
2023-03-18T14:38:55.435Z,98866.69
2023-03-18T14:45:26.203Z,98856.56
2023-03-18T14:51:31.640Z,98855.72
2023-03-18T14:57:33.723Z,98854.78
2023-03-18T15:03:38.567Z,98843.72
2023-03-18T15:09:44.589Z,98833.97
2023-03-18T15:15:47.089Z,98837.25
2023-03-18T15:21:50.197Z,98842.22
2023-03-18T15:27:55.289Z,98834.56
2023-03-18T15:34:30.604Z,98838.63
2023-03-18T15:40:47.352Z,98833.78
2023-03-18T15:46:49.958Z,98840.53
2023-03-18T15:53:20.884Z,98833.78
2023-03-18T15:59:32.394Z,98839.72
2023-03-18T16:05:34.591Z,98821.53
2023-03-18T16:11:36.919Z,98830.47
2023-03-18T16:17:38.906Z,98838.53
2023-03-18T16:23:41.550Z,98831.13
2023-03-18T16:29:43.565Z,98841.59
2023-03-18T16:35:58.627Z,98864.00
2023-03-18T16:42:04.310Z,98860.97
2023-03-18T16:48:07.564Z,98855.72
2023-03-18T16:54:32.445Z,98861.06
2023-03-18T17:00:34.339Z,98863.16
2023-03-18T17:06:36.608Z,98849.22
2023-03-18T17:12:39.965Z,98852.78
2023-03-18T17:18:41.862Z,98853.06
2023-03-18T17:24:43.752Z,98857.91
2023-03-18T17:30:45.916Z,98865.06
2023-03-18T17:36:48.473Z,98872.31
2023-03-18T17:42:52.379Z,98865.38
2023-03-18T17:48:55.058Z,98868.50
2023-03-18T17:54:57.248Z,98871.16
2023-03-18T18:01:15.496Z,98887.75
2023-03-18T18:07:21.847Z,98881.81
2023-03-18T18:13:23.951Z,98881.91
2023-03-18T18:19:27.049Z,98882.91
2023-03-18T18:25:30.283Z,98883.13
2023-03-18T18:31:34.484Z,98888.31
2023-03-18T18:37:36.421Z,98890.19
2023-03-18T18:43:38.372Z,98891.66
2023-03-18T18:49:40.923Z,98893.00
2023-03-18T18:55:43.032Z,98885.38
2023-03-18T19:01:44.970Z,98889.94
2023-03-18T19:07:47.028Z,98891.44
2023-03-18T19:13:48.961Z,98892.00
2023-03-18T19:19:52.787Z,98889.03
2023-03-18T19:25:56.872Z,98892.06
2023-03-18T19:32:01.262Z,98889.91
2023-03-18T19:38:03.295Z,98891.16
2023-03-18T19:44:21.618Z,98899.69
2023-03-18T19:50:23.554Z,98895.22
2023-03-18T19:56:28.908Z,98904.63
2023-03-18T20:02:33.922Z,98902.59
2023-03-18T20:08:36.268Z,98902.38
2023-03-18T20:14:39.140Z,98894.78
2023-03-18T20:20:51.150Z,98902.19
2023-03-18T20:26:53.067Z,98899.31
2023-03-18T20:32:56.101Z,98896.78
2023-03-18T20:38:58.238Z,98908.13
2023-03-18T20:45:00.410Z,98900.59
2023-03-18T20:51:03.332Z,98910.16
2023-03-18T20:57:05.217Z,98920.63
2023-03-18T21:03:27.848Z,98916.97
2023-03-18T21:09:29.785Z,98929.53
2023-03-18T21:15:32.769Z,98926.53
2023-03-18T21:21:38.735Z,98935.50
2023-03-18T21:27:40.772Z,98932.09
2023-03-18T21:33:45.041Z,98925.88
2023-03-18T21:39:47.383Z,98933.81
2023-03-18T21:45:50.460Z,98940.47
2023-03-18T21:51:52.688Z,98946.53
2023-03-18T21:57:54.682Z,98943.34
2023-03-18T22:03:56.624Z,98932.28
2023-03-18T22:09:58.767Z,98917.75
2023-03-18T22:16:00.871Z,98940.13
2023-03-18T22:22:02.905Z,98933.38
2023-03-18T22:28:05.635Z,98944.50
2023-03-18T22:34:23.540Z,98954.38
2023-03-18T22:40:29.370Z,98955.94
2023-03-18T22:46:32.017Z,98940.00
2023-03-18T22:52:34.052Z,98938.34
2023-03-18T22:58:36.343Z,98927.31
2023-03-18T23:04:38.208Z,98936.44
2023-03-18T23:10:41.923Z,98932.06
2023-03-18T23:16:43.865Z,98934.63
2023-03-18T23:22:46.186Z,98932.16
2023-03-18T23:28:49.073Z,98941.50
2023-03-18T23:34:51.031Z,98931.41
2023-03-18T23:40:52.940Z,98926.34
2023-03-18T23:46:54.897Z,98923.41
2023-03-18T23:52:56.933Z,98934.63
2023-03-18T23:58:58.977Z,98931.38
